sensor_id;sensor_type;location;lat;lon;timestamp;pressure;altitude;pressure_sealevel;temperature;humidity
11487;BME280;10510;47.942;9.442;2023-03-26T00:00:29;94195.34;;;5.21;100.00
11487;BME280;10510;47.942;9.442;2023-03-26T00:02:30;94183.34;;;5.20;100.00
11487;BME280;10510;47.942;9.442;2023-03-26T00:04:30;94192.28;;;5.18;100.00
11487;BME280;10510;47.942;9.442;2023-03-26T00:06:36;94189.81;;;5.16;100.00
11487;BME280;10510;47.942;9.442;2023-03-26T00:08:39;94190.00;;;5.15;100.00
11487;BME280;10510;47.942;9.442;2023-03-26T00:10:41;94180.78;;;5.12;100.00
11487;BME280;10510;47.942;9.442;2023-03-26T00:12:41;94183.50;;;5.11;100.00
11487;BME280;10510;47.942;9.442;2023-03-26T00:14:41;94173.47;;;5.08;100.00
11487;BME280;10510;47.942;9.442;2023-03-26T00:16:43;94172.81;;;5.06;100.00
11487;BME280;10510;47.942;9.442;2023-03-26T00:18:44;94167.81;;;5.04;100.00
11487;BME280;10510;47.942;9.442;2023-03-26T00:20:44;94168.78;;;5.03;100.00
11487;BME280;10510;47.942;9.442;2023-03-26T00:22:44;94162.94;;;5.01;100.00
11487;BME280;10510;47.942;9.442;2023-03-26T00:24:45;94165.69;;;4.99;100.00
11487;BME280;10510;47.942;9.442;2023-03-26T00:26:48;94166.66;;;4.98;100.00
11487;BME280;10510;47.942;9.442;2023-03-26T00:28:52;94173.63;;;4.98;100.00
11487;BME280;10510;47.942;9.442;2023-03-26T00:30:58;94162.59;;;4.96;100.00
11487;BME280;10510;47.942;9.442;2023-03-26T00:32:59;94172.16;;;4.95;100.00
11487;BME280;10510;47.942;9.442;2023-03-26T00:34:59;94164.72;;;4.92;100.00
11487;BME280;10510;47.942;9.442;2023-03-26T00:37:01;94164.38;;;4.87;100.00
11487;BME280;10510;47.942;9.442;2023-03-26T00:39:03;94168.91;;;4.85;100.00
11487;BME280;10510;47.942;9.442;2023-03-26T00:41:07;94163.09;;;4.83;100.00
11487;BME280;10510;47.942;9.442;2023-03-26T00:43:17;94162.44;;;4.81;100.00
11487;BME280;10510;47.942;9.442;2023-03-26T00:45:18;94157.56;;;4.78;100.00
11487;BME280;10510;47.942;9.442;2023-03-26T00:47:20;94162.75;;;4.78;100.00
11487;BME280;10510;47.942;9.442;2023-03-26T00:49:21;94159.50;;;4.76;100.00
11487;BME280;10510;47.942;9.442;2023-03-26T00:51:26;94153.53;;;4.75;100.00
11487;BME280;10510;47.942;9.442;2023-03-26T00:53:27;94150.28;;;4.73;100.00
11487;BME280;10510;47.942;9.442;2023-03-26T00:55:27;94149.47;;;4.73;100.00
11487;BME280;10510;47.942;9.442;2023-03-26T00:57:27;94145.94;;;4.74;100.00
11487;BME280;10510;47.942;9.442;2023-03-26T00:59:29;94147.53;;;4.75;100.00
11487;BME280;10510;47.942;9.442;2023-03-26T01:01:29;94146.72;;;4.74;100.00
11487;BME280;10510;47.942;9.442;2023-03-26T01:03:33;94143.34;;;4.74;100.00
11487;BME280;10510;47.942;9.442;2023-03-26T01:07:34;94135.72;;;4.72;100.00
11487;BME280;10510;47.942;9.442;2023-03-26T01:09:40;94133.13;;;4.72;100.00
11487;BME280;10510;47.942;9.442;2023-03-26T01:11:49;94128.75;;;4.73;100.00
11487;BME280;10510;47.942;9.442;2023-03-26T01:16:18;94128.28;;;4.77;100.00
11487;BME280;10510;47.942;9.442;2023-03-26T01:18:21;94125.53;;;4.79;100.00
11487;BME280;10510;47.942;9.442;2023-03-26T01:20:26;94123.91;;;4.78;100.00
11487;BME280;10510;47.942;9.442;2023-03-26T01:22:29;94113.56;;;4.78;100.00
11487;BME280;10510;47.942;9.442;2023-03-26T01:24:30;94107.41;;;4.79;100.00
11487;BME280;10510;47.942;9.442;2023-03-26T01:26:42;94111.78;;;4.78;100.00
11487;BME280;10510;47.942;9.442;2023-03-26T01:28:47;94110.81;;;4.80;100.00
11487;BME280;10510;47.942;9.442;2023-03-26T01:30:59;94104.66;;;4.81;100.00
11487;BME280;10510;47.942;9.442;2023-03-26T01:37:49;94101.41;;;4.78;100.00
11487;BME280;10510;47.942;9.442;2023-03-26T01:40:00;94098.03;;;4.78;100.00
11487;BME280;10510;47.942;9.442;2023-03-26T01:42:09;94094.63;;;4.77;100.00
11487;BME280;10510;47.942;9.442;2023-03-26T01:44:27;94096.41;;;4.77;100.00
11487;BME280;10510;47.942;9.442;2023-03-26T01:46:31;94087.84;;;4.76;100.00
11487;BME280;10510;47.942;9.442;2023-03-26T01:48:40;94086.19;;;4.75;100.00
11487;BME280;10510;47.942;9.442;2023-03-26T01:50:41;94091.25;;;4.77;100.00
11487;BME280;10510;47.942;9.442;2023-03-26T01:52:41;94083.63;;;4.75;100.00
11487;BME280;10510;47.942;9.442;2023-03-26T01:54:42;94078.44;;;4.75;100.00
11487;BME280;10510;47.942;9.442;2023-03-26T01:59:12;94088.66;;;4.77;100.00
11487;BME280;10510;47.942;9.442;2023-03-26T02:01:26;94082.50;;;4.78;100.00
11487;BME280;10510;47.942;9.442;2023-03-26T02:03:31;94076.31;;;4.79;100.00
11487;BME280;10510;47.942;9.442;2023-03-26T02:05:41;94071.00;;;4.81;100.00
11487;BME280;10510;47.942;9.442;2023-03-26T02:09:53;94067.28;;;4.83;100.00
11487;BME280;10510;47.942;9.442;2023-03-26T02:11:57;94061.94;;;4.85;100.00
11487;BME280;10510;47.942;9.442;2023-03-26T02:13:59;94063.38;;;4.87;100.00
11487;BME280;10510;47.942;9.442;2023-03-26T02:16:01;94054.34;;;4.91;100.00
11487;BME280;10510;47.942;9.442;2023-03-26T02:18:02;94047.19;;;4.93;100.00
11487;BME280;10510;47.942;9.442;2023-03-26T02:20:03;94045.25;;;4.95;100.00
11487;BME280;10510;47.942;9.442;2023-03-26T02:22:05;94041.69;;;4.96;100.00
11487;BME280;10510;47.942;9.442;2023-03-26T02:24:05;94044.78;;;5.00;100.00
11487;BME280;10510;47.942;9.442;2023-03-26T02:26:08;94041.03;;;5.03;100.00
11487;BME280;10510;47.942;9.442;2023-03-26T02:28:09;94030.34;;;5.06;100.00
11487;BME280;10510;47.942;9.442;2023-03-26T02:30:12;94038.63;;;5.09;100.00
11487;BME280;10510;47.942;9.442;2023-03-26T02:32:13;94022.09;;;5.10;100.00
11487;BME280;10510;47.942;9.442;2023-03-26T02:34:15;94014.00;;;5.13;100.00
11487;BME280;10510;47.942;9.442;2023-03-26T02:36:15;93999.25;;;5.14;100.00
11487;BME280;10510;47.942;9.442;2023-03-26T02:38:17;93986.78;;;5.17;100.00
11487;BME280;10510;47.942;9.442;2023-03-26T02:40:18;93987.44;;;5.19;100.00
11487;BME280;10510;47.942;9.442;2023-03-26T02:42:21;93985.50;;;5.21;100.00
11487;BME280;10510;47.942;9.442;2023-03-26T02:44:21;93978.53;;;5.22;100.00
11487;BME280;10510;47.942;9.442;2023-03-26T02:46:21;93967.34;;;5.21;100.00
11487;BME280;10510;47.942;9.442;2023-03-26T02:48:22;93964.56;;;5.23;100.00
11487;BME280;10510;47.942;9.442;2023-03-26T02:50:22;93964.56;;;5.23;100.00
11487;BME280;10510;47.942;9.442;2023-03-26T02:52:23;93966.38;;;5.22;100.00
11487;BME280;10510;47.942;9.442;2023-03-26T02:54:23;93974.94;;;5.23;100.00
11487;BME280;10510;47.942;9.442;2023-03-26T02:56:23;93971.41;;;5.24;100.00
11487;BME280;10510;47.942;9.442;2023-03-26T02:58:24;93966.22;;;5.24;100.00
11487;BME280;10510;47.942;9.442;2023-03-26T03:00:25;93967.00;;;5.24;100.00
11487;BME280;10510;47.942;9.442;2023-03-26T03:02:25;93961.03;;;5.24;100.00
11487;BME280;10510;47.942;9.442;2023-03-26T03:04:28;93947.09;;;5.25;100.00
11487;BME280;10510;47.942;9.442;2023-03-26T03:06:28;93935.75;;;5.26;100.00
11487;BME280;10510;47.942;9.442;2023-03-26T03:08:30;93939.16;;;5.27;100.00
11487;BME280;10510;47.942;9.442;2023-03-26T03:10:30;93923.63;;;5.27;100.00
11487;BME280;10510;47.942;9.442;2023-03-26T03:12:34;93931.22;;;5.28;100.00
11487;BME280;10510;47.942;9.442;2023-03-26T03:14:35;93925.88;;;5.30;100.00
11487;BME280;10510;47.942;9.442;2023-03-26T03:16:36;93924.09;;;5.30;100.00
11487;BME280;10510;47.942;9.442;2023-03-26T03:18:37;93923.28;;;5.30;100.00
11487;BME280;10510;47.942;9.442;2023-03-26T03:20:37;93924.09;;;5.30;100.00
11487;BME280;10510;47.942;9.442;2023-03-26T03:22:37;93913.72;;;5.30;100.00
11487;BME280;10510;47.942;9.442;2023-03-26T03:24:38;93909.34;;;5.31;100.00
11487;BME280;10510;47.942;9.442;2023-03-26T03:26:38;93901.56;;;5.31;100.00
11487;BME280;10510;47.942;9.442;2023-03-26T03:28:40;93895.41;;;5.32;100.00
11487;BME280;10510;47.942;9.442;2023-03-26T03:30:40;93897.19;;;5.31;100.00
11487;BME280;10510;47.942;9.442;2023-03-26T03:32:41;93903.97;;;5.32;100.00
11487;BME280;10510;47.942;9.442;2023-03-26T03:34:41;93909.16;;;5.32;100.00
11487;BME280;10510;47.942;9.442;2023-03-26T03:36:41;93911.75;;;5.32;100.00
11487;BME280;10510;47.942;9.442;2023-03-26T03:38:41;93913.38;;;5.33;100.00
11487;BME280;10510;47.942;9.442;2023-03-26T03:40:42;93910.94;;;5.32;100.00
11487;BME280;10510;47.942;9.442;2023-03-26T03:42:42;93913.38;;;5.33;100.00
11487;BME280;10510;47.942;9.442;2023-03-26T03:44:43;93905.75;;;5.32;100.00
11487;BME280;10510;47.942;9.442;2023-03-26T03:46:43;93891.03;;;5.32;100.00
11487;BME280;10510;47.942;9.442;2023-03-26T03:48:44;93882.28;;;5.33;100.00
11487;BME280;10510;47.942;9.442;2023-03-26T03:50:48;93887.28;;;5.35;100.00
11487;BME280;10510;47.942;9.442;2023-03-26T03:52:48;93880.50;;;5.34;100.00
11487;BME280;10510;47.942;9.442;2023-03-26T03:54:49;93876.91;;;5.35;100.00
11487;BME280;10510;47.942;9.442;2023-03-26T03:56:50;93880.31;;;5.35;100.00
11487;BME280;10510;47.942;9.442;2023-03-26T03:58:50;93882.75;;;5.37;100.00
11487;BME280;10510;47.942;9.442;2023-03-26T04:00:51;93880.00;;;5.38;100.00
11487;BME280;10510;47.942;9.442;2023-03-26T04:02:52;93879.16;;;5.38;100.00
11487;BME280;10510;47.942;9.442;2023-03-26T04:04:53;93873.84;;;5.39;100.00
11487;BME280;10510;47.942;9.442;2023-03-26T04:06:53;93873.84;;;5.39;100.00
11487;BME280;10510;47.942;9.442;2023-03-26T04:08:57;93866.88;;;5.40;100.00
11487;BME280;10510;47.942;9.442;2023-03-26T04:10:57;93862.47;;;5.40;100.00
11487;BME280;10510;47.942;9.442;2023-03-26T04:12:57;93852.91;;;5.41;100.00
11487;BME280;10510;47.942;9.442;2023-03-26T04:14:58;93853.75;;;5.41;100.00
11487;BME280;10510;47.942;9.442;2023-03-26T04:16:58;93844.97;;;5.42;100.00
11487;BME280;10510;47.942;9.442;2023-03-26T04:18:58;93845.63;;;5.44;100.00
11487;BME280;10510;47.942;9.442;2023-03-26T04:21:01;93845.44;;;5.46;100.00
11487;BME280;10510;47.942;9.442;2023-03-26T04:23:02;93841.88;;;5.47;100.00
11487;BME280;10510;47.942;9.442;2023-03-26T04:25:03;93847.88;;;5.47;100.00
11487;BME280;10510;47.942;9.442;2023-03-26T04:27:05;93845.28;;;5.47;100.00
11487;BME280;10510;47.942;9.442;2023-03-26T04:29:07;93845.44;;;5.46;100.00
11487;BME280;10510;47.942;9.442;2023-03-26T04:31:13;93852.22;;;5.47;100.00
11487;BME280;10510;47.942;9.442;2023-03-26T04:33:14;93860.19;;;5.45;100.00
11487;BME280;10510;47.942;9.442;2023-03-26T04:35:15;93858.41;;;5.46;100.00
11487;BME280;10510;47.942;9.442;2023-03-26T04:37:23;93859.19;;;5.46;100.00
11487;BME280;10510;47.942;9.442;2023-03-26T04:39:25;93864.38;;;5.46;100.00
11487;BME280;10510;47.942;9.442;2023-03-26T04:41:28;93854.03;;;5.46;100.00
11487;BME280;10510;47.942;9.442;2023-03-26T04:43:29;93857.41;;;5.47;100.00
11487;BME280;10510;47.942;9.442;2023-03-26T04:45:30;93845.44;;;5.46;100.00
11487;BME280;10510;47.942;9.442;2023-03-26T04:47:30;93845.44;;;5.46;100.00
11487;BME280;10510;47.942;9.442;2023-03-26T04:49:31;93843.84;;;5.45;100.00
11487;BME280;10510;47.942;9.442;2023-03-26T04:51:36;93835.25;;;5.44;100.00
11487;BME280;10510;47.942;9.442;2023-03-26T04:53:37;93835.25;;;5.44;100.00
11487;BME280;10510;47.942;9.442;2023-03-26T04:55:54;93823.59;;;5.40;100.00
11487;BME280;10510;47.942;9.442;2023-03-26T04:57:57;93829.78;;;5.39;100.00
11487;BME280;10510;47.942;9.442;2023-03-26T05:00:04;93822.16;;;5.38;100.00
11487;BME280;10510;47.942;9.442;2023-03-26T05:02:19;93812.63;;;5.38;100.00
11487;BME280;10510;47.942;9.442;2023-03-26T05:04:19;93821.34;;;5.37;100.00
11487;BME280;10510;47.942;9.442;2023-03-26T05:06:20;93816.53;;;5.34;100.00
11487;BME280;10510;47.942;9.442;2023-03-26T05:08:20;93816.53;;;5.34;100.00
11487;BME280;10510;47.942;9.442;2023-03-26T05:10:21;93817.50;;;5.33;100.00
11487;BME280;10510;47.942;9.442;2023-03-26T05:12:22;93817.50;;;5.33;100.00
11487;BME280;10510;47.942;9.442;2023-03-26T05:14:22;93817.50;;;5.33;100.00
11487;BME280;10510;47.942;9.442;2023-03-26T05:16:23;93814.91;;;5.33;100.00
11487;BME280;10510;47.942;9.442;2023-03-26T05:18:23;93809.72;;;5.33;100.00
11487;BME280;10510;47.942;9.442;2023-03-26T05:20:26;93806.34;;;5.33;100.00
11487;BME280;10510;47.942;9.442;2023-03-26T05:22:26;93805.34;;;5.34;100.00
11487;BME280;10510;47.942;9.442;2023-03-26T05:24:27;93789.00;;;5.33;100.00
11487;BME280;10510;47.942;9.442;2023-03-26T05:26:28;93791.41;;;5.35;100.00
11487;BME280;10510;47.942;9.442;2023-03-26T05:28:28;93780.88;;;5.36;100.00
11487;BME280;10510;47.942;9.442;2023-03-26T05:30:28;93779.91;;;5.37;100.00
11487;BME280;10510;47.942;9.442;2023-03-26T05:32:30;93777.31;;;5.37;100.00
11487;BME280;10510;47.942;9.442;2023-03-26T05:34:30;93772.13;;;5.37;100.00
11487;BME280;10510;47.942;9.442;2023-03-26T05:36:30;93762.41;;;5.39;100.00
11487;BME280;10510;47.942;9.442;2023-03-26T05:38:31;93757.88;;;5.41;100.00
11487;BME280;10510;47.942;9.442;2023-03-26T05:40:31;93752.69;;;5.41;100.00
11487;BME280;10510;47.942;9.442;2023-03-26T05:42:32;93750.09;;;5.41;100.00
11487;BME280;10510;47.942;9.442;2023-03-26T05:44:32;93745.88;;;5.40;100.00
11487;BME280;10510;47.942;9.442;2023-03-26T05:46:32;93737.13;;;5.41;100.00
11487;BME280;10510;47.942;9.442;2023-03-26T05:48:32;93735.16;;;5.43;100.00
11487;BME280;10510;47.942;9.442;2023-03-26T05:50:33;93729.97;;;5.43;100.00
11487;BME280;10510;47.942;9.442;2023-03-26T05:52:33;93732.56;;;5.43;100.00
11487;BME280;10510;47.942;9.442;2023-03-26T05:54:33;93728.19;;;5.44;100.00
11487;BME280;10510;47.942;9.442;2023-03-26T05:56:34;93720.41;;;5.44;100.00
11487;BME280;10510;47.942;9.442;2023-03-26T05:58:35;93720.25;;;5.45;100.00
11487;BME280;10510;47.942;9.442;2023-03-26T06:00:35;93714.06;;;5.46;100.00
11487;BME280;10510;47.942;9.442;2023-03-26T06:02:38;93717.47;;;5.47;100.00
11487;BME280;10510;47.942;9.442;2023-03-26T06:04:38;93713.91;;;5.48;100.00
11487;BME280;10510;47.942;9.442;2023-03-26T06:06:39;93711.31;;;5.48;100.00
11487;BME280;10510;47.942;9.442;2023-03-26T06:08:50;93702.75;;;5.47;100.00
11487;BME280;10510;47.942;9.442;2023-03-26T06:10:58;93698.16;;;5.50;100.00
11487;BME280;10510;47.942;9.442;2023-03-26T06:12:58;93706.59;;;5.52;100.00
11487;BME280;10510;47.942;9.442;2023-03-26T06:14:59;93704.00;;;5.52;100.00
11487;BME280;10510;47.942;9.442;2023-03-26T06:16:59;93697.81;;;5.53;100.00
11487;BME280;10510;47.942;9.442;2023-03-26T06:19:00;93679.50;;;5.54;100.00
11487;BME280;10510;47.942;9.442;2023-03-26T06:21:01;93671.75;;;5.54;100.00
11487;BME280;10510;47.942;9.442;2023-03-26T06:23:02;93663.16;;;5.54;100.00
11487;BME280;10510;47.942;9.442;2023-03-26T06:25:02;93656.00;;;5.56;100.00
11487;BME280;10510;47.942;9.442;2023-03-26T06:27:02;93655.84;;;5.57;100.00
11487;BME280;10510;47.942;9.442;2023-03-26T06:29:03;93654.84;;;5.58;100.00
11487;BME280;10510;47.942;9.442;2023-03-26T06:31:03;93657.28;;;5.60;100.00
11487;BME280;10510;47.942;9.442;2023-03-26T06:33:03;93647.69;;;5.60;100.00
11487;BME280;10510;47.942;9.442;2023-03-26T06:35:04;93646.34;;;5.64;100.00
11487;BME280;10510;47.942;9.442;2023-03-26T06:37:05;93643.59;;;5.66;100.00
11487;BME280;10510;47.942;9.442;2023-03-26T06:39:05;93644.03;;;5.69;100.00
11487;BME280;10510;47.942;9.442;2023-03-26T06:41:06;93646.28;;;5.73;100.00
11487;BME280;10510;47.942;9.442;2023-03-26T06:43:06;93646.28;;;5.73;100.00
11487;BME280;10510;47.942;9.442;2023-03-26T06:45:07;93642.88;;;5.72;100.00
11487;BME280;10510;47.942;9.442;2023-03-26T06:47:07;93639.50;;;5.72;100.00
11487;BME280;10510;47.942;9.442;2023-03-26T06:49:08;93642.88;;;5.72;100.00
11487;BME280;10510;47.942;9.442;2023-03-26T06:51:08;93641.28;;;5.71;100.00
11487;BME280;10510;47.942;9.442;2023-03-26T06:53:10;93632.88;;;5.69;100.00
11487;BME280;10510;47.942;9.442;2023-03-26T06:55:10;93628.31;;;5.71;100.00
11487;BME280;10510;47.942;9.442;2023-03-26T06:57:11;93626.34;;;5.73;100.00
11487;BME280;10510;47.942;9.442;2023-03-26T06:59:11;93630.56;;;5.74;100.00
11487;BME280;10510;47.942;9.442;2023-03-26T07:01:11;93627.97;;;5.74;100.00
11487;BME280;10510;47.942;9.442;2023-03-26T07:03:12;93620.78;;;5.76;100.00
11487;BME280;10510;47.942;9.442;2023-03-26T07:05:13;93623.03;;;5.79;100.00
11487;BME280;10510;47.942;9.442;2023-03-26T07:07:13;93620.44;;;5.79;100.00
11487;BME280;10510;47.942;9.442;2023-03-26T07:09:14;93623.88;;;5.80;100.00
11487;BME280;10510;47.942;9.442;2023-03-26T07:11:14;93619.63;;;5.79;100.00
11487;BME280;10510;47.942;9.442;2023-03-26T07:13:15;93617.03;;;5.79;100.00
11487;BME280;10510;47.942;9.442;2023-03-26T07:15:16;93617.25;;;5.77;100.00
11487;BME280;10510;47.942;9.442;2023-03-26T07:17:16;93609.47;;;5.77;100.00
11487;BME280;10510;47.942;9.442;2023-03-26T07:19:16;93613.84;;;5.77;100.00
11487;BME280;10510;47.942;9.442;2023-03-26T07:21:17;93619.41;;;5.74;100.00
11487;BME280;10510;47.942;9.442;2023-03-26T07:23:19;93617.97;;;5.71;100.00
11487;BME280;10510;47.942;9.442;2023-03-26T07:25:20;93619.72;;;5.70;100.00
11487;BME280;10510;47.942;9.442;2023-03-26T07:29:33;93596.56;;;5.69;100.00
11487;BME280;10510;47.942;9.442;2023-03-26T07:32:07;93584.63;;;5.68;100.00
11487;BME280;10510;47.942;9.442;2023-03-26T07:34:50;93578.78;;;5.66;100.00
11487;BME280;10510;47.942;9.442;2023-03-26T07:39:13;93588.16;;;5.67;100.00
11487;BME280;10510;47.942;9.442;2023-03-26T07:45:53;93601.13;;;5.67;100.00
11487;BME280;10510;47.942;9.442;2023-03-26T07:47:53;93600.16;;;5.68;100.00
11487;BME280;10510;47.942;9.442;2023-03-26T07:49:56;93586.38;;;5.67;100.00
11487;BME280;10510;47.942;9.442;2023-03-26T07:51:56;93587.19;;;5.68;100.00
11487;BME280;10510;47.942;9.442;2023-03-26T07:53:58;93587.19;;;5.68;100.00
11487;BME280;10510;47.942;9.442;2023-03-26T08:00:41;93584.78;;;5.66;100.00
11487;BME280;10510;47.942;9.442;2023-03-26T08:17:14;93547.03;;;5.64;100.00
11487;BME280;10510;47.942;9.442;2023-03-26T08:25:58;93526.72;;;5.82;100.00
11487;BME280;10510;47.942;9.442;2023-03-26T08:30:25;93527.81;;;5.88;100.00
11487;BME280;10510;47.942;9.442;2023-03-26T08:32:26;93539.44;;;5.92;100.00
11487;BME280;10510;47.942;9.442;2023-03-26T08:34:26;93536.03;;;5.91;100.00
11487;BME280;10510;47.942;9.442;2023-03-26T08:36:26;93533.91;;;5.95;100.00
11487;BME280;10510;47.942;9.442;2023-03-26T08:38:27;93532.13;;;5.96;100.00
11487;BME280;10510;47.942;9.442;2023-03-26T08:43:08;93507.69;;;6.05;100.00
11487;BME280;10510;47.942;9.442;2023-03-26T09:05:30;93504.75;;;6.29;100.00
11487;BME280;10510;47.942;9.442;2023-03-26T09:13:05;93500.66;;;6.20;100.00
11487;BME280;10510;47.942;9.442;2023-03-26T09:22:52;93512.41;;;6.16;100.00
11487;BME280;10510;47.942;9.442;2023-03-26T09:25:08;93532.63;;;6.21;100.00
11487;BME280;10510;47.942;9.442;2023-03-26T09:37:12;93540.13;;;6.16;100.00
11487;BME280;10510;47.942;9.442;2023-03-26T09:39:35;93562.06;;;6.13;100.00
11487;BME280;10510;47.942;9.442;2023-03-26T09:41:42;93562.44;;;6.10;100.00
11487;BME280;10510;47.942;9.442;2023-03-26T09:44:21;93565.19;;;6.08;100.00
11487;BME280;10510;47.942;9.442;2023-03-26T09:46:31;93568.34;;;6.04;100.00
11487;BME280;10510;47.942;9.442;2023-03-26T09:49:12;93574.94;;;5.91;100.00
11487;BME280;10510;47.942;9.442;2023-03-26T09:51:21;93587.19;;;5.83;100.00
11487;BME280;10510;47.942;9.442;2023-03-26T09:55:43;93596.75;;;5.67;100.00
11487;BME280;10510;47.942;9.442;2023-03-26T10:02:52;93580.09;;;5.47;100.00
11487;BME280;10510;47.942;9.442;2023-03-26T10:05:14;93580.66;;;5.42;100.00
11487;BME280;10510;47.942;9.442;2023-03-26T10:16:37;93518.63;;;6.00;100.00
11487;BME280;10510;47.942;9.442;2023-03-26T10:19:09;93520.50;;;6.28;100.00
11487;BME280;10510;47.942;9.442;2023-03-26T10:24:02;93517.72;;;6.72;100.00
11487;BME280;10510;47.942;9.442;2023-03-26T10:25:51;93506.13;;;6.96;100.00
11487;BME280;10510;47.942;9.442;2023-03-26T10:37:24;93504.47;;;8.41;100.00
11487;BME280;10510;47.942;9.442;2023-03-26T10:42:40;93485.31;;;8.89;100.00
11487;BME280;10510;47.942;9.442;2023-03-26T10:44:59;93484.09;;;9.04;100.00
11487;BME280;10510;47.942;9.442;2023-03-26T10:52:05;93505.69;;;9.51;100.00
11487;BME280;10510;47.942;9.442;2023-03-26T10:56:46;93508.47;;;9.63;100.00
11487;BME280;10510;47.942;9.442;2023-03-26T10:58:48;93511.47;;;9.67;100.00
11487;BME280;10510;47.942;9.442;2023-03-26T11:00:54;93509.66;;;9.74;100.00
11487;BME280;10510;47.942;9.442;2023-03-26T11:05:18;93511.22;;;9.95;100.00
11487;BME280;10510;47.942;9.442;2023-03-26T11:10:01;93517.06;;;10.42;100.00
11487;BME280;10510;47.942;9.442;2023-03-26T11:14:52;93513.13;;;10.13;100.00
11487;BME280;10510;47.942;9.442;2023-03-26T11:17:33;93514.16;;;10.12;100.00
11487;BME280;10510;47.942;9.442;2023-03-26T11:19:51;93506.38;;;9.98;100.00
11487;BME280;10510;47.942;9.442;2023-03-26T11:22:06;93502.19;;;9.84;100.00
11487;BME280;10510;47.942;9.442;2023-03-26T11:24:27;93509.25;;;9.77;100.00
11487;BME280;10510;47.942;9.442;2023-03-26T11:26:50;93514.09;;;9.60;100.00
11487;BME280;10510;47.942;9.442;2023-03-26T11:29:17;93503.09;;;9.38;100.00
11487;BME280;10510;47.942;9.442;2023-03-26T11:33:35;93524.78;;;8.99;100.00
11487;BME280;10510;47.942;9.442;2023-03-26T11:35:39;93535.81;;;8.81;100.00
11487;BME280;10510;47.942;9.442;2023-03-26T11:37:45;93532.97;;;8.62;100.00
11487;BME280;10510;47.942;9.442;2023-03-26T11:39:49;93534.72;;;8.42;100.00
11487;BME280;10510;47.942;9.442;2023-03-26T11:42:14;93546.47;;;8.25;100.00
11487;BME280;10510;47.942;9.442;2023-03-26T11:44:23;93536.78;;;8.05;100.00
11487;BME280;10510;47.942;9.442;2023-03-26T11:46:25;93538.31;;;7.93;100.00
11487;BME280;10510;47.942;9.442;2023-03-26T11:48:37;93545.88;;;7.81;100.00
11487;BME280;10510;47.942;9.442;2023-03-26T11:50:48;93538.81;;;7.68;100.00
11487;BME280;10510;47.942;9.442;2023-03-26T11:52:50;93524.47;;;7.44;100.00
11487;BME280;10510;47.942;9.442;2023-03-26T11:54:50;93515.38;;;7.27;100.00
11487;BME280;10510;47.942;9.442;2023-03-26T11:57:03;93507.47;;;7.14;100.00
11487;BME280;10510;47.942;9.442;2023-03-26T11:59:11;93523.81;;;7.08;100.00
11487;BME280;10510;47.942;9.442;2023-03-26T12:01:16;93535.75;;;7.02;100.00
11487;BME280;10510;47.942;9.442;2023-03-26T12:03:17;93527.28;;;6.93;100.00
11487;BME280;10510;47.942;9.442;2023-03-26T12:05:22;93513.63;;;6.85;100.00
11487;BME280;10510;47.942;9.442;2023-03-26T12:07:32;93502.81;;;6.81;100.00
11487;BME280;10510;47.942;9.442;2023-03-26T12:09:33;93518.25;;;6.82;100.00
11487;BME280;10510;47.942;9.442;2023-03-26T12:11:33;93500.84;;;6.83;100.00
11487;BME280;10510;47.942;9.442;2023-03-26T12:13:38;93495.84;;;6.81;100.00
11487;BME280;10510;47.942;9.442;2023-03-26T12:15:42;93486.44;;;6.80;100.00
11487;BME280;10510;47.942;9.442;2023-03-26T12:17:43;93487.44;;;6.79;100.00
11487;BME280;10510;47.942;9.442;2023-03-26T12:19:44;93485.31;;;6.90;100.00
11487;BME280;10510;47.942;9.442;2023-03-26T12:21:48;93481.81;;;7.04;100.00
11487;BME280;10510;47.942;9.442;2023-03-26T12:23:59;93479.78;;;7.27;100.00
11487;BME280;10510;47.942;9.442;2023-03-26T12:26:09;93474.91;;;7.53;100.00
11487;BME280;10510;47.942;9.442;2023-03-26T12:28:18;93468.31;;;7.98;100.00
11487;BME280;10510;47.942;9.442;2023-03-26T12:30:24;93454.97;;;8.28;100.00
11487;BME280;10510;47.942;9.442;2023-03-26T12:32:30;93455.63;;;8.70;100.00
11487;BME280;10510;47.942;9.442;2023-03-26T12:34:36;93444.19;;;9.10;100.00
11487;BME280;10510;47.942;9.442;2023-03-26T12:36:37;93441.13;;;9.40;100.00
11487;BME280;10510;47.942;9.442;2023-03-26T12:38:38;93437.06;;;9.58;100.00
11487;BME280;10510;47.942;9.442;2023-03-26T12:40:39;93424.56;;;9.80;100.00
11487;BME280;10510;47.942;9.442;2023-03-26T12:42:53;93429.50;;;9.94;100.00
11487;BME280;10510;47.942;9.442;2023-03-26T12:44:55;93440.38;;;10.23;100.00
11487;BME280;10510;47.942;9.442;2023-03-26T12:47:14;93429.00;;;10.49;100.00
11487;BME280;10510;47.942;9.442;2023-03-26T12:49:17;93433.91;;;10.32;100.00
11487;BME280;10510;47.942;9.442;2023-03-26T12:51:35;93442.00;;;10.17;100.00
11487;BME280;10510;47.942;9.442;2023-03-26T13:03:06;93504.97;;;8.16;100.00
11487;BME280;10510;47.942;9.442;2023-03-26T13:05:28;93470.94;;;7.57;100.00
11487;BME280;10510;47.942;9.442;2023-03-26T13:12:21;93450.81;;;6.68;100.00
11487;BME280;10510;47.942;9.442;2023-03-26T13:14:32;93443.59;;;6.70;100.00
11487;BME280;10510;47.942;9.442;2023-03-26T13:19:08;93435.25;;;6.74;100.00
11487;BME280;10510;47.942;9.442;2023-03-26T13:23:35;93419.25;;;6.99;100.00
11487;BME280;10510;47.942;9.442;2023-03-26T13:28:00;93413.47;;;7.03;100.00
11487;BME280;10510;47.942;9.442;2023-03-26T13:30:24;93420.25;;;6.98;100.00
11487;BME280;10510;47.942;9.442;2023-03-26T13:35:21;93411.59;;;7.25;100.00
11487;BME280;10510;47.942;9.442;2023-03-26T13:42:21;93378.09;;;8.92;100.00
11487;BME280;10510;47.942;9.442;2023-03-26T13:44:43;93373.97;;;9.36;100.00
11487;BME280;10510;47.942;9.442;2023-03-26T13:47:02;93358.91;;;9.76;100.00
11487;BME280;10510;47.942;9.442;2023-03-26T13:53:35;93344.47;;;10.87;100.00
11487;BME280;10510;47.942;9.442;2023-03-26T13:55:43;93332.59;;;11.09;100.00
11487;BME280;10510;47.942;9.442;2023-03-26T13:57:50;93322.28;;;11.33;100.00